Flight Track Log - Related Links

Times and Time Zones

All times are in EDT time to prevent confusion due to time zone crossing. See the ASQ6115 flight status page for this flight to view local times or setup timezone preferences in your user account.

Time Position Orientation Groundspeed Altitude Reporting Facility
EDT Latitude Longitude Course Direction KTS MPH feet Rate Location/Type
Fri 02:24:44 PM 29.9617 -95.3436 190° South 165 190 800  Level Houston Center
Fri 02:25:09 PM 29.9450 -95.3214 131° Southeast 180 207 1,700 1,953 Climbing Houston Center
Fri 02:26:10 PM 29.9039 -95.2639 130° Southeast 254 292 3,600 1,902 Climbing Houston Center
Fri 02:27:12 PM 29.8581 -95.1994 129° Southeast 274 315 5,600 2,195 Climbing Houston Center
Fri 02:28:00 PM 29.6101 -95.4070 191° South  Level FlightAware Approximate
Fri 02:28:13 PM 29.7869 -95.1575 153° Southeast 295 339 8,100  Level Houston Center
Fri 02:29:00 PM 29.5170 -95.4266 190° South  Level FlightAware Approximate
Fri 02:29:15 PM 29.7053 -95.1819 195° South 290 334 10,400  Level Houston Center
Fri 02:30:00 PM 29.4237 -95.4453 190° South  Level FlightAware Approximate
Fri 02:30:16 PM 29.6183 -95.2192 200° South 347 399 11,100  Level Houston Center
Fri 02:31:27 PM 29.5219 -95.2622 201° Southwest 360 414 12,500 1,433 Climbing Houston Center
Fri 02:32:30 PM 29.4097 -95.3108 201° Southwest 361 415 14,300 1,584 Climbing Houston Center
Fri 02:33:32 PM 29.3269 -95.3756 214° Southwest 359 413 15,800 1,839 Climbing Houston Center
Fri 02:34:34 PM 29.2519 -95.4464 219° Southwest 351 404 18,100 2,081 Climbing Houston Center
Fri 02:35:36 PM 29.1794 -95.5142 219° Southwest 340 391 20,100 1,935 Climbing Houston Center
Fri 02:36:38 PM 29.1069 -95.5831 220° Southwest 338 389 22,100 1,742 Climbing Houston Center
Fri 02:37:40 PM 29.0347 -95.6500 219° Southwest 335 386 23,700 1,355 Climbing Houston Center
Fri 02:38:42 PM 28.9419 -95.7369 219° Southwest 359 413 24,900 1,056 Climbing Houston Center
Fri 02:39:45 PM 28.8594 -95.8144 219° Southwest 381 438 25,900 960 Climbing Houston Center
Fri 02:40:47 PM 28.7750 -95.8931 219° Southwest 392 451 26,900 968 Climbing Houston Center
Fri 02:41:49 PM 28.6917 -95.9714 220° Southwest 397 457 27,900 919 Climbing Houston Center
Fri 02:42:51 PM 28.6056 -96.0522 220° Southwest 399 459 28,800 1,016 Climbing Houston Center
Fri 02:43:53 PM 28.4997 -96.1489 219° Southwest 403 464 30,000 1,065 Climbing Houston Center
Fri 02:44:55 PM 28.4100 -96.2317 219° Southwest 411 473 31,000 968 Climbing Houston Center
Fri 02:45:57 PM 28.3206 -96.3150 219° Southwest 414 476 32,000 960 Climbing Houston Center
Fri 02:47:00 PM 28.2292 -96.3975 219° Southwest 417 480 33,000 1,104 Climbing Houston Center
Fri 02:48:02 PM 28.1386 -96.4814 219° Southwest 418 481 34,300 1,306 Climbing Houston Center
Fri 02:49:04 PM 28.0506 -96.5606 218° Southwest 410 472 35,700 823 Climbing Houston Center
Fri 02:50:06 PM 27.9442 -96.6561 218° Southwest 406 467 36,000 145 Climbing Houston Center
Fri 02:51:08 PM 27.8181 -96.6767 188° South 454 522 36,000 -194 Level Houston Center
Fri 02:52:10 PM 27.6919 -96.6519 170° South 460 529 35,600 -1,065 Descending Houston Center
Fri 02:53:12 PM 27.5692 -96.6306 171° South 450 518 33,800 -1,742 Descending Houston Center
Fri 02:54:14 PM 27.4492 -96.6356 182° South 442 509 32,000 -1,728 Descending Houston Center
Fri 02:55:17 PM 27.3308 -96.6614 191° South 435 501 30,200 -1,632 Descending Houston Center
Fri 02:56:19 PM 27.1969 -96.7139 199° South 441 507 28,600 -1,500 Descending Houston Center
Fri 02:57:21 PM 27.0847 -96.7611 201° Southwest 450 518 27,100 -1,694 Descending Houston Center
Fri 02:58:23 PM 26.9536 -96.7806 188° South 472 543 25,100 -1,935 Descending Houston Center
Fri 02:59:25 PM 26.8369 -96.8250 199° South 459 528 23,100 -1,846 Descending Houston Center
Fri 03:00:07 PM 26.7686 -96.9072 227° Southwest 406 467 21,900 -1,548 Descending Houston Center
Fri 03:00:27 PM 26.7456 -96.9367 229° Southwest 413 475 21,500 -1,233 Descending Houston Center
Fri 03:01:20 PM 26.6786 -97.0231 229° Southwest 400 460 20,400 -1,368 Descending Houston Center
Fri 03:02:21 PM 26.6103 -97.1264 234° Southwest 412 474 18,900 -1,623 Descending Houston Center
Fri 03:03:22 PM 26.5547 -97.2325 240° Southwest 390 449 17,100 -1,574 Descending Houston Center
Fri 03:04:23 PM 26.5092 -97.3347 244° Southwest 369 425 15,700 -1,240 Descending Houston Center
Fri 03:05:23 PM 26.4686 -97.4431 247° West 375 432 14,600 -1,200 Descending Houston Center
Fri 03:05:38 PM 26.4600 -97.4772 254° West 378 435 14,200 -1,082 Descending Houston Center
Fri 03:06:24 PM 26.4419 -97.5636 257° West 377 434 13,500 -1,065 Descending Houston Center
Fri 03:06:40 PM 26.4381 -97.5906 261° West 375 432 13,100 -985 Descending Houston Center
Fri 03:07:31 PM 26.4150 -97.6842 255° West 371 427 12,400 -962 Descending Houston Center
Fri 03:08:26 PM 26.3925 -97.7689 254° West 300 345 11,400 -1,397 Descending Houston Center
Fri 03:08:44 PM 26.3853 -97.7936 252° West 297 342 10,700 -1,800 Descending Houston Center
Fri 03:09:26 PM 26.3700 -97.8514 254° West 272 313 9,600 -1,935 Descending Houston Center
Fri 03:09:46 PM 26.3625 -97.8822 255° West 279 321 8,700 -2,060 Descending Houston Center
Fri 03:10:33 PM 26.3481 -97.9431 255° West 267 307 7,300 -1,905 Descending Houston Center
Fri 03:10:49 PM 26.3428 -97.9600 251° West 264 304 6,700 -2,164 Descending Houston Center
Fri 03:11:34 PM 26.3286 -98.0156 254° West 244 281 5,100 -2,226 Descending Houston Center
Fri 03:11:51 PM 26.3233 -98.0383 256° West 247 284 4,400 -1,254 Descending Houston Center
Fri 03:12:41 PM 26.3058 -98.1003 253° West 247 284 3,700 -840 Descending Houston Center

Login

Don't have an account? Register now (free) for customized features, flight alerts, and more!